createdAt,value
2022-11-27T00:01:57.969Z,85.48
2022-11-27T00:04:24.667Z,84.85
2022-11-27T00:06:51.303Z,84.84
2022-11-27T00:09:19.319Z,84.45
2022-11-27T00:11:45.899Z,84.57
2022-11-27T00:14:13.564Z,84.28
2022-11-27T00:16:40.713Z,84.29
2022-11-27T00:19:07.606Z,84.61
2022-11-27T00:21:35.595Z,84.96
2022-11-27T00:24:05.068Z,85.48
2022-11-27T00:26:37.829Z,85.93
2022-11-27T00:29:05.807Z,86.55
2022-11-27T00:31:33.723Z,86.71
2022-11-27T00:34:03.930Z,87.01
2022-11-27T00:36:32.556Z,87.38
2022-11-27T00:38:59.597Z,87.39
2022-11-27T00:41:28.159Z,87.41
2022-11-27T00:43:56.349Z,87.72
2022-11-27T00:46:28.339Z,87.65
2022-11-27T00:48:55.833Z,88.11
2022-11-27T00:51:23.999Z,88.06
2022-11-27T00:53:51.349Z,88.11
2022-11-27T00:56:21.194Z,88.18
2022-11-27T00:58:47.873Z,88.26
2022-11-27T01:01:18.633Z,88.32
2022-11-27T01:03:45.894Z,88.63
2022-11-27T01:06:13.352Z,88.56
2022-11-27T01:08:39.943Z,88.70
2022-11-27T01:11:06.723Z,88.94
2022-11-27T01:13:35.667Z,89.06
2022-11-27T01:16:05.160Z,89.11
2022-11-27T01:18:33.894Z,89.01
2022-11-27T01:21:01.088Z,89.16
2022-11-27T01:23:28.184Z,89.30
2022-11-27T01:25:54.875Z,89.45
2022-11-27T01:28:23.156Z,89.28
2022-11-27T01:30:50.498Z,89.07
2022-11-27T01:33:17.591Z,89.14
2022-11-27T01:35:53.421Z,89.23
2022-11-27T01:38:20.010Z,89.04
2022-11-27T01:40:46.582Z,88.89
2022-11-27T01:43:14.877Z,88.78
2022-11-27T01:45:42.217Z,88.83
2022-11-27T01:48:12.627Z,88.50
2022-11-27T01:50:40.101Z,88.41
2022-11-27T01:53:13.585Z,87.82
2022-11-27T01:55:42.730Z,87.90
2022-11-27T01:58:12.300Z,87.37
2022-11-27T02:00:39.949Z,87.11
2022-11-27T02:03:06.686Z,86.45
2022-11-27T02:05:33.327Z,86.46
2022-11-27T02:08:05.646Z,85.96
2022-11-27T02:10:46.555Z,85.39
2022-11-27T02:13:17.191Z,85.38
2022-11-27T02:15:50.781Z,85.08
2022-11-27T02:18:24.983Z,84.86
2022-11-27T02:21:04.855Z,85.00
2022-11-27T02:24:10.547Z,85.28
2022-11-27T02:27:02.085Z,85.19
2022-11-27T02:29:32.965Z,85.44
2022-11-27T02:32:07.084Z,85.35
2022-11-27T02:34:38.532Z,85.42
2022-11-27T02:37:10.613Z,85.60
2022-11-27T02:39:44.425Z,85.57
2022-11-27T02:42:16.489Z,85.50
2022-11-27T02:44:49.434Z,85.54
2022-11-27T02:47:16.289Z,85.40
2022-11-27T02:49:43.993Z,85.46
2022-11-27T02:52:13.169Z,85.33
2022-11-27T02:54:42.571Z,85.77
2022-11-27T02:57:11.805Z,85.73
2022-11-27T02:59:41.747Z,85.94
2022-11-27T03:02:14.299Z,86.12
2022-11-27T03:04:46.035Z,85.81
2022-11-27T03:07:17.558Z,85.93
2022-11-27T03:09:47.619Z,86.26
2022-11-27T03:12:15.846Z,86.83
2022-11-27T03:14:43.645Z,87.14
2022-11-27T03:17:26.154Z,87.19
2022-11-27T03:19:56.999Z,86.96
2022-11-27T03:22:23.916Z,87.01
2022-11-27T03:24:50.468Z,86.83
2022-11-27T03:27:21.395Z,86.68
2022-11-27T03:29:51.121Z,86.97
2022-11-27T03:32:19.776Z,86.96
2022-11-27T03:34:47.780Z,87.16
2022-11-27T03:37:14.793Z,87.38
2022-11-27T03:39:42.141Z,87.04
2022-11-27T03:42:18.826Z,86.71
2022-11-27T03:44:52.688Z,86.63
2022-11-27T03:47:32.169Z,86.58
2022-11-27T03:50:17.683Z,86.57
2022-11-27T03:52:52.157Z,86.60
2022-11-27T03:55:27.652Z,86.42
2022-11-27T03:58:00.335Z,87.13
2022-11-27T04:00:30.363Z,87.31
2022-11-27T04:02:58.334Z,87.00
2022-11-27T04:05:24.965Z,87.13
2022-11-27T04:07:51.550Z,87.06
2022-11-27T04:10:18.302Z,86.80
2022-11-27T04:12:44.904Z,86.66
2022-11-27T04:15:12.282Z,86.50
2022-11-27T04:17:38.905Z,86.32
2022-11-27T04:20:09.078Z,86.06
2022-11-27T04:22:35.637Z,86.36
2022-11-27T04:25:02.284Z,86.25
2022-11-27T04:27:28.861Z,86.14
2022-11-27T04:29:55.495Z,86.41
2022-11-27T04:32:22.124Z,86.39
2022-11-27T04:34:48.695Z,85.86
2022-11-27T04:37:16.620Z,85.76
2022-11-27T04:39:43.240Z,86.03
2022-11-27T04:42:09.814Z,86.35
2022-11-27T04:44:36.428Z,86.32
2022-11-27T04:47:03.136Z,85.87
2022-11-27T04:49:29.787Z,85.75
2022-11-27T04:51:56.412Z,85.53
2022-11-27T04:54:24.505Z,85.37
2022-11-27T04:56:51.125Z,85.27
2022-11-27T04:59:17.973Z,85.14
2022-11-27T05:01:44.654Z,85.08
2022-11-27T05:04:11.234Z,85.01
2022-11-27T05:06:37.849Z,84.91
2022-11-27T05:09:04.418Z,84.93
2022-11-27T05:11:32.716Z,84.90
2022-11-27T05:13:59.499Z,84.65
2022-11-27T05:16:26.105Z,84.64
2022-11-27T05:18:52.678Z,84.64
2022-11-27T05:21:19.284Z,84.48
2022-11-27T05:23:45.851Z,84.59
2022-11-27T05:26:12.385Z,84.53
2022-11-27T05:28:40.379Z,84.58
2022-11-27T05:31:07.059Z,84.85
2022-11-27T05:33:33.659Z,85.11
2022-11-27T05:36:00.308Z,84.75
2022-11-27T05:38:26.883Z,84.42
2022-11-27T05:40:53.429Z,84.32
2022-11-27T05:43:20.043Z,84.18
2022-11-27T05:45:48.024Z,84.39
2022-11-27T05:48:14.643Z,84.55
2022-11-27T05:50:41.237Z,84.31
2022-11-27T05:53:07.828Z,84.39
2022-11-27T05:55:34.404Z,84.63
2022-11-27T05:58:00.963Z,84.70
2022-11-27T06:00:27.537Z,84.66
2022-11-27T06:02:56.295Z,84.60
2022-11-27T06:05:23.518Z,84.37
2022-11-27T06:07:50.115Z,84.21
2022-11-27T06:10:16.996Z,84.62
2022-11-27T06:12:43.515Z,84.50
2022-11-27T06:15:10.308Z,84.52
2022-11-27T06:17:36.885Z,84.43
2022-11-27T06:20:06.387Z,84.18
2022-11-27T06:22:32.944Z,83.79
2022-11-27T06:24:59.547Z,84.04
2022-11-27T06:27:26.163Z,84.17
2022-11-27T06:29:52.752Z,84.49
2022-11-27T06:32:19.386Z,84.38
2022-11-27T06:34:45.990Z,84.43
2022-11-27T06:37:14.137Z,84.42
2022-11-27T06:39:40.725Z,83.93
2022-11-27T06:42:07.381Z,84.06
2022-11-27T06:44:33.985Z,84.25
2022-11-27T06:47:00.606Z,84.52
2022-11-27T06:49:27.172Z,84.62
2022-11-27T06:51:53.779Z,84.74
2022-11-27T06:54:21.829Z,84.74
2022-11-27T06:56:49.925Z,85.08
2022-11-27T06:59:16.898Z,85.15
2022-11-27T07:01:44.231Z,85.69
2022-11-27T07:04:11.440Z,86.56
2022-11-27T07:06:38.358Z,87.17
2022-11-27T07:09:06.078Z,87.33
2022-11-27T07:11:34.501Z,87.32
2022-11-27T07:14:03.568Z,87.30
2022-11-27T07:16:32.720Z,87.72
2022-11-27T07:19:01.088Z,87.52
2022-11-27T07:21:28.216Z,87.90
2022-11-27T07:23:55.575Z,87.67
2022-11-27T07:26:25.043Z,87.76
2022-11-27T07:28:53.242Z,87.70
2022-11-27T07:31:22.795Z,87.57
2022-11-27T07:33:50.228Z,87.55
2022-11-27T07:36:19.155Z,87.10
2022-11-27T07:38:46.207Z,86.91
2022-11-27T07:41:13.402Z,87.01
2022-11-27T07:43:41.448Z,87.00
2022-11-27T07:46:12.638Z,87.03
2022-11-27T07:48:39.338Z,86.82
2022-11-27T07:51:06.705Z,86.99
2022-11-27T07:53:36.935Z,87.00
2022-11-27T07:56:03.918Z,87.05
2022-11-27T07:58:30.528Z,87.44
2022-11-27T08:00:57.264Z,87.44
2022-11-27T08:03:25.452Z,87.76
2022-11-27T08:05:52.334Z,87.98
2022-11-27T08:08:18.985Z,87.65
2022-11-27T08:10:45.542Z,87.63
2022-11-27T08:13:12.142Z,88.00
2022-11-27T08:15:38.713Z,88.16
2022-11-27T08:18:05.459Z,88.66
2022-11-27T08:20:33.667Z,88.83
2022-11-27T08:23:03.034Z,88.75
2022-11-27T08:25:30.105Z,88.86
2022-11-27T08:27:56.806Z,88.83
2022-11-27T08:30:23.474Z,89.27
2022-11-27T08:32:50.240Z,89.23
2022-11-27T08:35:17.182Z,89.45
2022-11-27T08:37:45.364Z,89.53
2022-11-27T08:40:12.213Z,89.41
2022-11-27T08:42:38.806Z,89.52
2022-11-27T08:45:05.992Z,89.72
2022-11-27T08:47:32.562Z,89.71
2022-11-27T08:49:59.209Z,89.87
2022-11-27T08:52:25.832Z,90.04
2022-11-27T08:54:57.580Z,89.98
2022-11-27T08:57:25.047Z,90.05
2022-11-27T08:59:51.690Z,89.87
2022-11-27T09:02:18.255Z,89.62
2022-11-27T09:04:44.911Z,89.53
2022-11-27T09:07:11.452Z,89.43
2022-11-27T09:09:38.096Z,89.65
2022-11-27T09:12:06.742Z,89.22
2022-11-27T09:14:33.303Z,89.31
2022-11-27T09:16:59.874Z,89.16
2022-11-27T09:19:26.532Z,89.02
2022-11-27T09:21:53.074Z,89.04
2022-11-27T09:24:19.698Z,89.21
2022-11-27T09:26:46.233Z,89.07
2022-11-27T09:29:14.273Z,88.77
2022-11-27T09:31:40.955Z,88.44
2022-11-27T09:34:07.601Z,88.59
2022-11-27T09:36:34.269Z,89.10
2022-11-27T09:39:00.824Z,88.88
2022-11-27T09:41:44.053Z,88.06
2022-11-27T09:44:31.275Z,87.98
2022-11-27T09:47:01.943Z,87.40
2022-11-27T09:49:41.519Z,87.16
2022-11-27T09:52:15.858Z,86.88
2022-11-27T09:54:52.268Z,86.84
2022-11-27T09:57:24.291Z,86.66
2022-11-27T09:59:54.150Z,86.65
2022-11-27T10:02:26.456Z,86.14
2022-11-27T10:07:53.661Z,85.88
2022-11-27T10:10:33.610Z,85.38
2022-11-27T10:13:11.075Z,85.26
2022-11-27T10:15:49.434Z,84.94
2022-11-27T10:18:32.457Z,84.67
2022-11-27T10:21:07.398Z,85.01
2022-11-27T10:23:42.849Z,85.05
2022-11-27T10:26:17.844Z,85.07
2022-11-27T10:28:52.301Z,85.12
2022-11-27T10:31:31.588Z,84.85
2022-11-27T10:34:02.005Z,84.62
2022-11-27T10:36:32.008Z,84.33
2022-11-27T10:39:01.178Z,84.44
2022-11-27T10:41:49.618Z,84.46
2022-11-27T10:44:29.834Z,84.07
2022-11-27T10:47:02.461Z,84.04
2022-11-27T10:49:29.401Z,83.87
2022-11-27T10:51:56.155Z,83.25
2022-11-27T10:54:27.430Z,83.24
2022-11-27T10:57:13.034Z,83.47
2022-11-27T10:59:44.241Z,83.58
2022-11-27T11:02:28.816Z,83.40
2022-11-27T11:05:16.569Z,83.03
2022-11-27T11:07:42.094Z,82.54
2022-11-27T11:10:25.700Z,82.97
2022-11-27T11:13:13.273Z,83.21
2022-11-27T11:15:56.052Z,83.05
2022-11-27T11:18:25.785Z,83.35
2022-11-27T11:20:54.693Z,82.75
2022-11-27T11:23:25.398Z,83.18
2022-11-27T11:25:54.888Z,82.38
2022-11-27T11:28:22.393Z,81.94
2022-11-27T11:31:00.276Z,81.42
2022-11-27T11:33:28.617Z,80.89
2022-11-27T11:36:01.303Z,81.01
2022-11-27T11:38:31.248Z,80.61
2022-11-27T11:41:02.455Z,80.02
2022-11-27T11:43:30.995Z,80.22
2022-11-27T11:46:05.938Z,79.31
2022-11-27T11:48:35.394Z,79.47
2022-11-27T11:51:10.792Z,79.27
2022-11-27T11:53:39.186Z,79.14
2022-11-27T11:56:19.425Z,78.65
2022-11-27T11:58:53.945Z,79.06
2022-11-27T12:01:39.550Z,78.97
2022-11-27T12:04:30.891Z,79.21
2022-11-27T12:07:05.390Z,79.70
2022-11-27T12:09:44.723Z,79.34
2022-11-27T12:12:24.102Z,79.42
2022-11-27T12:14:54.946Z,79.57
2022-11-27T12:17:37.813Z,79.00
2022-11-27T12:20:17.718Z,78.80
2022-11-27T12:23:13.453Z,77.95
2022-11-27T12:25:49.471Z,78.94
2022-11-27T12:28:36.086Z,78.64
2022-11-27T12:31:09.617Z,78.02
2022-11-27T12:33:53.513Z,78.62
2022-11-27T12:36:29.884Z,77.64
2022-11-27T12:39:09.502Z,77.63
2022-11-27T12:42:05.086Z,77.22
2022-11-27T12:44:41.442Z,77.76
2022-11-27T12:47:13.732Z,77.30
2022-11-27T12:49:45.063Z,77.00
2022-11-27T12:52:18.511Z,77.17
2022-11-27T12:54:47.858Z,76.67
2022-11-27T12:57:20.626Z,76.01
2022-11-27T12:59:53.867Z,75.88
2022-11-27T13:02:36.434Z,75.72
2022-11-27T13:05:05.908Z,75.26
2022-11-27T13:07:41.202Z,75.47
2022-11-27T13:10:18.309Z,75.23
2022-11-27T13:12:52.023Z,74.71
2022-11-27T13:15:27.469Z,75.15
2022-11-27T13:18:02.914Z,75.09
2022-11-27T13:20:35.431Z,75.57
2022-11-27T13:23:03.558Z,75.65
2022-11-27T13:25:34.764Z,76.03
2022-11-27T13:28:04.268Z,75.64
2022-11-27T13:30:35.540Z,76.24
2022-11-27T13:33:04.088Z,75.73
2022-11-27T13:35:38.275Z,76.04
2022-11-27T13:38:09.904Z,76.21
2022-11-27T13:40:39.893Z,76.81
2022-11-27T13:43:20.069Z,76.77
2022-11-27T13:45:47.041Z,77.06
2022-11-27T13:48:29.656Z,77.34
2022-11-27T13:50:57.298Z,77.60
2022-11-27T13:53:32.751Z,77.55
2022-11-27T13:55:59.657Z,77.65
2022-11-27T13:58:31.944Z,77.74
2022-11-27T14:00:58.972Z,78.01
2022-11-27T14:03:27.937Z,78.20
2022-11-27T14:05:55.880Z,78.24
2022-11-27T14:08:26.078Z,78.17
2022-11-27T14:10:57.841Z,78.43
2022-11-27T14:13:37.256Z,78.93
2022-11-27T14:16:18.202Z,78.78
2022-11-27T14:18:50.816Z,79.00
2022-11-27T14:21:25.714Z,78.89
2022-11-27T14:23:53.768Z,78.93
2022-11-27T14:26:24.124Z,79.09
2022-11-27T14:28:54.327Z,79.46
2022-11-27T14:31:28.495Z,79.51
2022-11-27T14:36:42.406Z,79.76
2022-11-27T14:39:21.309Z,79.66
2022-11-27T14:41:57.788Z,79.80
2022-11-27T14:44:24.577Z,80.10
2022-11-27T14:46:52.316Z,80.35
2022-11-27T14:49:21.198Z,80.63
2022-11-27T14:51:48.632Z,81.06
2022-11-27T14:54:22.096Z,81.27
2022-11-27T14:56:48.990Z,81.17
2022-11-27T14:59:18.880Z,81.27
2022-11-27T15:01:46.672Z,81.57
2022-11-27T15:04:26.903Z,81.34
2022-11-27T15:06:55.271Z,81.46
2022-11-27T15:09:31.838Z,81.54
2022-11-27T15:12:03.255Z,81.69
2022-11-27T15:14:31.622Z,82.35
2022-11-27T15:16:58.639Z,82.71
2022-11-27T15:19:28.713Z,82.93
2022-11-27T15:21:55.624Z,83.12
2022-11-27T15:24:30.828Z,83.48
2022-11-27T15:27:07.985Z,83.40
2022-11-27T15:29:36.903Z,83.38
2022-11-27T15:32:04.345Z,83.57
2022-11-27T15:34:31.123Z,83.48
2022-11-27T15:37:00.132Z,83.70
2022-11-27T15:39:35.303Z,83.79
2022-11-27T15:42:03.783Z,83.66
2022-11-27T15:44:32.226Z,83.99
2022-11-27T15:47:01.974Z,83.68
2022-11-27T15:49:29.204Z,83.64
2022-11-27T15:51:56.664Z,83.49
2022-11-27T15:54:23.349Z,83.47
2022-11-27T15:56:50.116Z,83.78
2022-11-27T15:59:17.285Z,83.67
2022-11-27T16:01:43.897Z,84.00
2022-11-27T16:04:11.913Z,83.99
2022-11-27T16:06:38.789Z,84.00
2022-11-27T16:09:05.993Z,84.20
2022-11-27T16:11:33.886Z,84.05
2022-11-27T16:14:00.519Z,84.03
2022-11-27T16:16:27.434Z,84.29
2022-11-27T16:18:57.152Z,84.37
2022-11-27T16:21:29.665Z,84.37
2022-11-27T16:23:57.761Z,84.53
2022-11-27T16:26:24.423Z,84.76
2022-11-27T16:28:51.006Z,85.00
2022-11-27T16:31:17.804Z,84.79
2022-11-27T16:33:44.553Z,84.78
2022-11-27T16:36:13.517Z,84.64
2022-11-27T16:38:42.418Z,84.50
2022-11-27T16:41:11.566Z,84.74
2022-11-27T16:43:40.604Z,84.32
2022-11-27T16:46:08.553Z,84.18
2022-11-27T16:48:36.849Z,84.34
2022-11-27T16:51:05.162Z,84.27
2022-11-27T16:53:31.792Z,84.42
2022-11-27T16:55:59.769Z,84.81
2022-11-27T16:58:26.403Z,85.11
2022-11-27T17:00:53.051Z,85.26
2022-11-27T17:03:19.851Z,85.34
2022-11-27T17:05:51.309Z,85.83
2022-11-27T17:08:18.298Z,86.09
2022-11-27T17:10:44.949Z,86.09
2022-11-27T17:13:12.892Z,86.10
2022-11-27T17:15:40.816Z,86.10
2022-11-27T17:18:07.691Z,86.19
2022-11-27T17:20:34.341Z,86.12
2022-11-27T17:23:00.932Z,86.35
2022-11-27T17:25:29.775Z,86.54
2022-11-27T17:27:56.336Z,86.41
2022-11-27T17:30:24.642Z,86.26
2022-11-27T17:32:51.247Z,86.41
2022-11-27T17:35:17.869Z,86.20
2022-11-27T17:37:44.486Z,86.18
2022-11-27T17:40:11.991Z,86.24
2022-11-27T17:42:38.641Z,86.30
2022-11-27T17:45:05.950Z,86.75
2022-11-27T17:47:33.927Z,87.02
2022-11-27T17:50:00.531Z,87.20
2022-11-27T17:52:27.101Z,87.29
2022-11-27T17:54:53.712Z,87.52
2022-11-27T17:57:20.326Z,87.51
2022-11-27T17:59:46.886Z,87.61
2022-11-27T18:02:13.602Z,87.72
2022-11-27T18:04:41.594Z,87.69
2022-11-27T18:07:08.134Z,87.80
2022-11-27T18:09:34.734Z,87.74
2022-11-27T18:12:01.311Z,87.52
2022-11-27T18:14:27.914Z,87.46
2022-11-27T18:16:54.657Z,87.45
2022-11-27T18:19:21.364Z,87.43
2022-11-27T18:21:49.291Z,87.23
2022-11-27T18:24:24.611Z,87.03
2022-11-27T18:27:07.739Z,86.85
2022-11-27T18:29:35.816Z,86.68
2022-11-27T18:32:02.575Z,86.62
2022-11-27T18:34:29.263Z,86.27
2022-11-27T18:36:57.386Z,86.11
2022-11-27T18:39:24.120Z,86.01
2022-11-27T18:41:50.865Z,85.63
2022-11-27T18:44:17.538Z,85.68
2022-11-27T18:46:44.111Z,85.51
2022-11-27T18:49:10.751Z,85.42
2022-11-27T18:51:37.425Z,85.30
2022-11-27T18:54:05.673Z,84.98
2022-11-27T18:56:32.278Z,84.90
2022-11-27T18:59:00.874Z,84.86
2022-11-27T19:01:30.194Z,84.83
2022-11-27T19:03:59.997Z,84.72
2022-11-27T19:06:27.273Z,84.59
2022-11-27T19:08:53.944Z,84.32
2022-11-27T19:11:22.992Z,84.23
2022-11-27T19:13:50.735Z,84.24
2022-11-27T19:16:19.690Z,84.26
2022-11-27T19:18:46.870Z,84.05
2022-11-27T19:21:15.893Z,84.10
2022-11-27T19:23:43.000Z,83.88
2022-11-27T19:26:11.378Z,83.91
2022-11-27T19:28:40.185Z,84.03
2022-11-27T19:31:09.254Z,84.04
2022-11-27T19:33:36.817Z,84.03
2022-11-27T19:36:06.122Z,84.11
2022-11-27T19:38:32.772Z,84.21
2022-11-27T19:40:59.350Z,84.19
2022-11-27T19:43:25.946Z,84.35
2022-11-27T19:45:54.014Z,84.43
2022-11-27T19:48:23.381Z,84.44
2022-11-27T19:50:50.844Z,84.23
2022-11-27T19:53:17.379Z,84.26
2022-11-27T19:55:43.945Z,84.15
2022-11-27T19:58:10.748Z,84.08
2022-11-27T20:00:37.409Z,84.26
2022-11-27T20:03:05.424Z,84.23
2022-11-27T20:05:32.019Z,84.29
2022-11-27T20:07:58.644Z,84.22
2022-11-27T20:10:25.559Z,84.06
2022-11-27T20:12:52.086Z,84.08
2022-11-27T20:15:18.782Z,84.02
2022-11-27T20:17:45.416Z,83.94
2022-11-27T20:20:13.616Z,84.14
2022-11-27T20:22:40.277Z,84.26
2022-11-27T20:25:22.937Z,84.13
2022-11-27T20:27:49.556Z,84.04
2022-11-27T20:30:16.297Z,84.15
2022-11-27T20:32:42.944Z,84.10
2022-11-27T20:35:09.750Z,83.88
2022-11-27T20:37:37.757Z,83.96
2022-11-27T20:40:05.571Z,84.15
2022-11-27T20:42:32.387Z,84.11
2022-11-27T20:44:59.542Z,84.38
2022-11-27T20:47:26.128Z,84.47
2022-11-27T20:49:53.037Z,84.56
2022-11-27T20:52:19.617Z,84.76
2022-11-27T20:54:47.679Z,84.87
2022-11-27T20:57:14.336Z,84.65
2022-11-27T20:59:41.318Z,84.93
2022-11-27T21:02:10.915Z,84.81
2022-11-27T21:04:37.581Z,84.86
2022-11-27T21:07:04.630Z,84.98
2022-11-27T21:09:31.221Z,84.96
2022-11-27T21:11:59.361Z,84.92
2022-11-27T21:14:26.007Z,84.71
2022-11-27T21:16:52.651Z,84.58
2022-11-27T21:19:21.860Z,84.69
2022-11-27T21:21:49.425Z,84.72
2022-11-27T21:24:16.678Z,84.66
2022-11-27T21:26:43.821Z,84.53
2022-11-27T21:29:12.630Z,84.87
2022-11-27T21:31:45.095Z,84.97
2022-11-27T21:34:16.029Z,84.96
2022-11-27T21:36:42.759Z,84.92
2022-11-27T21:39:12.399Z,84.76
2022-11-27T21:41:39.101Z,84.91
2022-11-27T21:44:06.204Z,84.95
2022-11-27T21:46:34.190Z,84.96
2022-11-27T21:49:00.948Z,84.86
2022-11-27T21:51:28.919Z,84.79
2022-11-27T21:53:56.475Z,84.84
2022-11-27T21:56:24.866Z,84.90
2022-11-27T21:58:51.809Z,84.74
2022-11-27T22:01:20.818Z,84.92
2022-11-27T22:03:49.020Z,84.77
2022-11-27T22:06:16.397Z,85.10
2022-11-27T22:08:44.175Z,85.16
2022-11-27T22:11:13.913Z,85.29
2022-11-27T22:13:40.770Z,85.21
2022-11-27T22:16:09.862Z,85.27
2022-11-27T22:18:36.692Z,85.55
2022-11-27T22:21:05.617Z,85.05
2022-11-27T22:23:33.531Z,85.24
2022-11-27T22:26:01.325Z,85.37
2022-11-27T22:28:28.324Z,85.34
2022-11-27T22:30:55.388Z,85.40
2022-11-27T22:33:22.118Z,85.54
2022-11-27T22:35:48.767Z,85.60
2022-11-27T22:38:17.178Z,85.59
2022-11-27T22:40:44.049Z,85.78
2022-11-27T22:43:10.873Z,85.64
2022-11-27T22:45:38.694Z,85.87
2022-11-27T22:48:06.265Z,85.77
2022-11-27T22:50:32.895Z,85.92
2022-11-27T22:52:59.488Z,86.02
2022-11-27T22:55:27.500Z,85.82
2022-11-27T22:57:54.059Z,85.88
2022-11-27T23:00:21.343Z,85.96
2022-11-27T23:02:47.991Z,85.86
2022-11-27T23:05:14.721Z,85.98
2022-11-27T23:07:41.445Z,85.91
2022-11-27T23:10:08.610Z,85.89
2022-11-27T23:12:36.539Z,85.69
2022-11-27T23:15:03.921Z,85.82
2022-11-27T23:17:30.578Z,85.71
2022-11-27T23:19:57.129Z,85.64
2022-11-27T23:22:23.721Z,85.67
2022-11-27T23:24:50.379Z,85.62
2022-11-27T23:27:16.947Z,85.61
2022-11-27T23:29:44.950Z,85.70
2022-11-27T23:32:11.709Z,85.48
2022-11-27T23:34:38.442Z,85.45
2022-11-27T23:37:05.071Z,85.44
2022-11-27T23:39:31.719Z,85.63
2022-11-27T23:41:58.373Z,85.60
2022-11-27T23:44:24.953Z,85.62
2022-11-27T23:46:53.357Z,85.35
2022-11-27T23:49:19.966Z,85.38
2022-11-27T23:51:46.560Z,85.37
2022-11-27T23:54:13.170Z,85.26
2022-11-27T23:56:40.282Z,85.38
2022-11-27T23:59:07.242Z,85.19
